createdAt,value
2023-03-02T00:04:45.137Z,100757.31
2023-03-02T00:09:48.088Z,100749.34
2023-03-02T00:14:51.215Z,100744.44
2023-03-02T00:19:55.637Z,100750.94
2023-03-02T00:24:58.578Z,100753.84
2023-03-02T00:30:01.898Z,100758.47
2023-03-02T00:35:06.124Z,100741.28
2023-03-02T00:40:10.698Z,100742.34
2023-03-02T00:45:13.556Z,100726.13
2023-03-02T00:50:16.716Z,100715.84
2023-03-02T00:55:20.056Z,100722.81
2023-03-02T01:00:24.468Z,100721.28
2023-03-02T01:05:27.428Z,100720.69
2023-03-02T01:10:32.959Z,100704.50
2023-03-02T01:15:36.947Z,100702.41
2023-03-02T01:20:39.924Z,100700.09
2023-03-02T01:25:42.865Z,100690.94
2023-03-02T01:30:47.173Z,100685.25
2023-03-02T01:35:50.247Z,100673.44
2023-03-02T01:40:53.327Z,100663.34
2023-03-02T01:46:02.000Z,100664.41
2023-03-02T01:51:07.154Z,100666.44
2023-03-02T01:56:10.632Z,100659.59
2023-03-02T02:01:17.381Z,100646.78
2023-03-02T02:06:25.819Z,100650.50
2023-03-02T02:11:28.680Z,100639.28
2023-03-02T02:16:35.098Z,100636.78
2023-03-02T02:21:38.401Z,100623.22
2023-03-02T02:26:52.129Z,100619.06
2023-03-02T02:32:12.233Z,100617.38
2023-03-02T02:37:22.246Z,100615.94
2023-03-02T02:42:31.416Z,100620.31
2023-03-02T02:47:35.308Z,100613.56
2023-03-02T02:52:41.063Z,100622.16
2023-03-02T02:57:44.048Z,100619.38
2023-03-02T03:02:56.030Z,100620.16
2023-03-02T03:08:46.235Z,100617.63
2023-03-02T03:14:08.491Z,100625.81
2023-03-02T03:19:23.924Z,100625.97
2023-03-02T03:24:29.611Z,100627.88
2023-03-02T03:29:34.652Z,100621.22
2023-03-02T03:34:41.065Z,100617.69
2023-03-02T03:39:45.129Z,100621.91
2023-03-02T03:44:48.096Z,100622.22
2023-03-02T03:49:51.147Z,100624.28
2023-03-02T03:54:54.063Z,100619.19
2023-03-02T03:59:57.529Z,100619.41
2023-03-02T04:05:06.486Z,100620.25
2023-03-02T04:10:10.945Z,100619.59
2023-03-02T04:15:16.593Z,100616.44
2023-03-02T04:20:22.841Z,100621.09
2023-03-02T04:25:29.237Z,100616.94
2023-03-02T04:30:33.551Z,100628.38
2023-03-02T04:35:36.785Z,100619.00
2023-03-02T04:40:39.608Z,100621.59
2023-03-02T04:45:42.534Z,100621.59
2023-03-02T04:50:45.548Z,100621.44
2023-03-02T04:55:48.712Z,100623.19
2023-03-02T05:00:51.776Z,100624.03
2023-03-02T05:05:54.783Z,100629.22
2023-03-02T05:10:58.611Z,100625.03
2023-03-02T05:16:02.896Z,100630.44
2023-03-02T05:21:06.379Z,100623.69
2023-03-02T05:26:10.542Z,100628.13
2023-03-02T05:31:23.516Z,100630.88
2023-03-02T05:36:26.759Z,100632.69
2023-03-02T05:41:30.063Z,100639.56
2023-03-02T05:46:33.460Z,100636.84
2023-03-02T05:51:36.682Z,100642.53
2023-03-02T05:56:39.791Z,100642.78
2023-03-02T06:01:43.353Z,100651.78
2023-03-02T06:06:46.296Z,100662.59
2023-03-02T06:11:49.297Z,100662.09
2023-03-02T06:16:52.230Z,100664.03
2023-03-02T06:21:55.420Z,100673.44
2023-03-02T06:26:58.296Z,100661.75
2023-03-02T06:32:01.528Z,100663.94
2023-03-02T06:37:04.576Z,100664.34
2023-03-02T06:42:07.676Z,100662.09
2023-03-02T06:47:10.694Z,100663.31
2023-03-02T06:52:14.451Z,100653.84
2023-03-02T06:57:17.398Z,100660.97
2023-03-02T07:02:20.380Z,100659.88
2023-03-02T07:07:23.737Z,100663.09
2023-03-02T07:12:26.579Z,100675.81
2023-03-02T07:17:29.950Z,100671.13
2023-03-02T07:22:33.630Z,100671.72
2023-03-02T07:27:37.610Z,100674.78
2023-03-02T07:32:41.065Z,100663.44
2023-03-02T07:37:44.818Z,100665.06
2023-03-02T07:42:47.780Z,100658.84
2023-03-02T07:47:51.316Z,100646.03
2023-03-02T07:52:54.269Z,100636.50
2023-03-02T07:57:57.211Z,100634.44
2023-03-02T08:03:00.920Z,100623.06
2023-03-02T08:08:04.257Z,100617.47
2023-03-02T08:13:07.257Z,100617.28
2023-03-02T08:18:10.445Z,100612.97
2023-03-02T08:23:13.365Z,100603.41
2023-03-02T08:28:16.632Z,100620.00
2023-03-02T08:33:19.644Z,100618.19
2023-03-02T08:38:23.761Z,100604.81
2023-03-02T08:43:26.780Z,100607.81
2023-03-02T08:48:30.045Z,100605.38
2023-03-02T08:53:38.336Z,100600.03
2023-03-02T08:58:41.289Z,100600.00
2023-03-02T09:03:44.431Z,100589.94
2023-03-02T09:08:47.858Z,100591.91
2023-03-02T09:13:51.343Z,100592.28
2023-03-02T09:18:55.144Z,100587.47
2023-03-02T09:23:58.565Z,100584.03
2023-03-02T09:29:01.947Z,100573.59
2023-03-02T09:34:05.629Z,100573.53
2023-03-02T09:39:12.397Z,100570.56
2023-03-02T09:44:42.606Z,100569.63
2023-03-02T09:49:53.794Z,100567.22
2023-03-02T09:55:21.107Z,100564.69
2023-03-02T10:00:26.922Z,100547.97
2023-03-02T10:05:42.264Z,100546.00
2023-03-02T10:11:12.899Z,100549.00
2023-03-02T10:16:49.404Z,100543.97
2023-03-02T10:22:02.182Z,100545.91
2023-03-02T10:27:28.678Z,100537.06
2023-03-02T10:32:38.590Z,100535.03
2023-03-02T10:37:41.831Z,100525.13
2023-03-02T10:42:44.900Z,100519.47
2023-03-02T10:47:47.921Z,100518.25
2023-03-02T10:53:00.124Z,100514.06
2023-03-02T10:58:07.411Z,100498.78
2023-03-02T11:03:23.679Z,100494.59
2023-03-02T11:08:28.810Z,100484.00
2023-03-02T11:13:38.300Z,100478.91
2023-03-02T11:19:03.120Z,100472.94
2023-03-02T11:24:42.340Z,100465.31
2023-03-02T11:30:12.767Z,100467.34
2023-03-02T11:35:58.467Z,100448.75
2023-03-02T11:41:19.018Z,100452.47
2023-03-02T11:46:32.329Z,100445.06
2023-03-02T11:51:57.850Z,100436.75
2023-03-02T11:57:01.701Z,100430.44
2023-03-02T12:02:09.086Z,100416.56
2023-03-02T12:07:27.727Z,100414.09
2023-03-02T12:12:57.682Z,100417.44
2023-03-02T12:18:00.776Z,100407.69
2023-03-02T12:23:10.654Z,100407.41
2023-03-02T12:28:31.915Z,100408.66
2023-03-02T12:33:46.809Z,100409.22
2023-03-02T12:39:26.389Z,100412.09
2023-03-02T12:44:55.156Z,100416.06
2023-03-02T12:50:16.275Z,100410.88
2023-03-02T12:55:20.251Z,100402.28
2023-03-02T13:00:31.556Z,100392.28
2023-03-02T13:05:35.989Z,100391.56
2023-03-02T13:10:53.755Z,100378.00
2023-03-02T13:16:21.934Z,100374.09
2023-03-02T13:21:45.229Z,100373.78
2023-03-02T13:27:07.063Z,100372.44
2023-03-02T13:32:34.610Z,100368.66
2023-03-02T13:37:40.960Z,100367.00
2023-03-02T13:42:43.850Z,100360.91
2023-03-02T13:47:46.568Z,100349.56
2023-03-02T13:52:50.334Z,100356.91
2023-03-02T13:57:56.016Z,100347.13
2023-03-02T14:02:59.969Z,100340.66
2023-03-02T14:08:03.527Z,100332.00
2023-03-02T14:13:10.785Z,100329.19
2023-03-02T14:18:45.012Z,100319.69
2023-03-02T14:23:48.512Z,100307.06
2023-03-02T14:29:04.701Z,100302.94
2023-03-02T14:34:13.731Z,100306.06
2023-03-02T14:39:39.256Z,100298.06
2023-03-02T14:44:44.255Z,100303.09
2023-03-02T14:49:48.997Z,100297.16
2023-03-02T14:54:57.998Z,100294.81
2023-03-02T15:00:01.378Z,100291.00
2023-03-02T15:05:06.448Z,100289.84
2023-03-02T15:10:20.343Z,100287.25
2023-03-02T15:15:24.660Z,100287.78
2023-03-02T15:20:28.907Z,100282.31
2023-03-02T15:25:32.075Z,100289.47
2023-03-02T15:30:35.298Z,100284.69
2023-03-02T15:35:40.349Z,100289.72
2023-03-02T15:40:43.091Z,100284.09
2023-03-02T15:45:46.904Z,100293.72
2023-03-02T15:51:01.747Z,100299.38
2023-03-02T15:56:12.195Z,100299.00
2023-03-02T16:01:16.339Z,100303.94
2023-03-02T16:06:19.298Z,100303.88
2023-03-02T16:11:23.394Z,100304.44
2023-03-02T16:16:26.913Z,100308.13
2023-03-02T16:21:30.062Z,100311.25
2023-03-02T16:26:36.146Z,100314.50
2023-03-02T16:31:39.584Z,100324.44
2023-03-02T16:36:43.225Z,100323.00
2023-03-02T16:41:46.354Z,100319.56
2023-03-02T16:46:49.197Z,100329.00
2023-03-02T16:51:58.412Z,100336.31
2023-03-02T16:57:01.562Z,100343.41
2023-03-02T17:02:04.504Z,100349.41
2023-03-02T17:07:08.372Z,100357.56
2023-03-02T17:12:11.360Z,100353.31
2023-03-02T17:17:15.513Z,100355.03
2023-03-02T17:22:18.510Z,100362.59
2023-03-02T17:27:25.624Z,100364.34
2023-03-02T17:32:28.935Z,100354.97
2023-03-02T17:37:33.222Z,100353.53
2023-03-02T17:42:39.453Z,100358.41
2023-03-02T17:47:42.372Z,100367.84
2023-03-02T17:52:45.355Z,100367.56
2023-03-02T17:57:48.357Z,100375.88
2023-03-02T18:02:52.112Z,100372.56
2023-03-02T18:07:55.350Z,100375.22
2023-03-02T18:12:58.877Z,100377.66
2023-03-02T18:18:01.932Z,100381.38
2023-03-02T18:23:05.272Z,100372.75
2023-03-02T18:28:08.246Z,100373.00
2023-03-02T18:33:11.320Z,100368.59
2023-03-02T18:38:14.291Z,100377.69
2023-03-02T18:43:17.200Z,100382.56
2023-03-02T18:48:20.276Z,100373.66
2023-03-02T18:53:23.348Z,100381.22
2023-03-02T18:58:27.668Z,100392.72
2023-03-02T19:03:31.264Z,100383.88
2023-03-02T19:08:35.805Z,100387.13
2023-03-02T19:13:38.888Z,100382.72
2023-03-02T19:18:41.929Z,100381.53
2023-03-02T19:23:46.483Z,100388.22
2023-03-02T19:28:49.787Z,100387.00
2023-03-02T19:33:52.840Z,100385.22
2023-03-02T19:38:55.952Z,100395.25
2023-03-02T19:43:59.085Z,100387.38
2023-03-02T19:49:04.604Z,100397.41
2023-03-02T19:54:07.739Z,100393.00
2023-03-02T19:59:11.265Z,100392.66
2023-03-02T20:04:14.354Z,100395.81
2023-03-02T20:09:19.841Z,100393.19
2023-03-02T20:14:33.303Z,100394.66
2023-03-02T20:19:36.943Z,100397.72
2023-03-02T20:24:41.205Z,100396.34
2023-03-02T20:29:44.519Z,100406.28
2023-03-02T20:34:47.592Z,100414.09
2023-03-02T20:39:50.691Z,100414.13
2023-03-02T20:44:56.522Z,100412.94
2023-03-02T20:50:00.381Z,100414.44
2023-03-02T20:55:06.258Z,100417.25
2023-03-02T21:00:16.842Z,100407.75
2023-03-02T21:05:21.575Z,100403.34
2023-03-02T21:10:33.728Z,100409.22
2023-03-02T21:15:37.411Z,100396.13
2023-03-02T21:20:40.609Z,100394.53
2023-03-02T21:25:44.824Z,100396.75
2023-03-02T21:30:47.917Z,100397.88
2023-03-02T21:35:50.851Z,100393.28
2023-03-02T21:40:54.060Z,100390.16
2023-03-02T21:45:57.088Z,100408.16
2023-03-02T21:51:00.477Z,100407.31
2023-03-02T21:56:03.666Z,100407.34
2023-03-02T22:01:07.412Z,100407.22
2023-03-02T22:06:30.501Z,100397.78
2023-03-02T22:11:37.459Z,100398.28
2023-03-02T22:16:45.174Z,100396.78
2023-03-02T22:21:49.446Z,100399.91
2023-03-02T22:27:23.007Z,100390.75
2023-03-02T22:32:36.121Z,100386.97
2023-03-02T22:37:39.426Z,100389.97
2023-03-02T22:42:42.438Z,100390.34
2023-03-02T22:47:51.319Z,100388.84
2023-03-02T22:52:57.503Z,100390.84
2023-03-02T22:58:30.063Z,100390.19
2023-03-02T23:03:45.292Z,100377.41
2023-03-02T23:08:48.528Z,100384.69
2023-03-02T23:13:53.465Z,100375.44
2023-03-02T23:18:59.375Z,100375.16
2023-03-02T23:24:02.706Z,100374.22
2023-03-02T23:29:06.768Z,100368.38
2023-03-02T23:34:11.133Z,100365.00
2023-03-02T23:39:14.480Z,100366.31
2023-03-02T23:44:19.339Z,100363.16
2023-03-02T23:49:22.502Z,100363.16
2023-03-02T23:54:25.510Z,100362.59
2023-03-02T23:59:28.574Z,100363.59
